sensor_id;sensor_type;location;lat;lon;timestamp;temperature;humidity
68922;DHT22;55959;51.244;5.724;2023-07-16T00:01:52;22.60;65.50
68922;DHT22;55959;51.244;5.724;2023-07-16T00:04:17;22.60;65.50
68922;DHT22;55959;51.244;5.724;2023-07-16T00:06:43;22.60;65.70
68922;DHT22;55959;51.244;5.724;2023-07-16T00:09:09;22.60;65.70
68922;DHT22;55959;51.244;5.724;2023-07-16T00:11:34;22.50;65.70
68922;DHT22;55959;51.244;5.724;2023-07-16T00:14:00;22.50;66.10
68922;DHT22;55959;51.244;5.724;2023-07-16T00:16:27;22.50;66.10
68922;DHT22;55959;51.244;5.724;2023-07-16T00:18:53;22.40;66.10
68922;DHT22;55959;51.244;5.724;2023-07-16T00:21:19;22.40;66.10
68922;DHT22;55959;51.244;5.724;2023-07-16T00:23:45;22.40;66.10
68922;DHT22;55959;51.244;5.724;2023-07-16T00:26:13;22.40;66.30
68922;DHT22;55959;51.244;5.724;2023-07-16T00:28:39;22.30;66.30
68922;DHT22;55959;51.244;5.724;2023-07-16T00:31:05;22.30;66.30
68922;DHT22;55959;51.244;5.724;2023-07-16T00:33:30;22.30;66.20
68922;DHT22;55959;51.244;5.724;2023-07-16T00:35:56;22.30;66.20
68922;DHT22;55959;51.244;5.724;2023-07-16T00:38:22;22.30;66.20
68922;DHT22;55959;51.244;5.724;2023-07-16T00:40:47;22.20;66.10
68922;DHT22;55959;51.244;5.724;2023-07-16T00:43:13;22.20;66.20
68922;DHT22;55959;51.244;5.724;2023-07-16T00:45:41;22.20;66.20
68922;DHT22;55959;51.244;5.724;2023-07-16T00:48:07;22.20;66.30
68922;DHT22;55959;51.244;5.724;2023-07-16T00:50:34;22.10;66.30
68922;DHT22;55959;51.244;5.724;2023-07-16T00:53:05;22.10;66.30
68922;DHT22;55959;51.244;5.724;2023-07-16T00:55:34;22.10;66.30
68922;DHT22;55959;51.244;5.724;2023-07-16T00:58:06;22.00;66.40
68922;DHT22;55959;51.244;5.724;2023-07-16T01:00:36;22.00;66.50
68922;DHT22;55959;51.244;5.724;2023-07-16T01:03:06;22.00;66.60
68922;DHT22;55959;51.244;5.724;2023-07-16T01:05:55;22.00;66.70
68922;DHT22;55959;51.244;5.724;2023-07-16T01:08:41;21.90;66.70
68922;DHT22;55959;51.244;5.724;2023-07-16T01:11:09;21.90;66.80
68922;DHT22;55959;51.244;5.724;2023-07-16T01:13:35;21.90;66.90
68922;DHT22;55959;51.244;5.724;2023-07-16T01:16:02;21.80;67.00
68922;DHT22;55959;51.244;5.724;2023-07-16T01:18:27;21.80;67.20
68922;DHT22;55959;51.244;5.724;2023-07-16T01:20:53;21.80;67.20
68922;DHT22;55959;51.244;5.724;2023-07-16T01:29:51;21.70;67.20
68922;DHT22;55959;51.244;5.724;2023-07-16T01:32:17;21.70;67.60
68922;DHT22;55959;51.244;5.724;2023-07-16T01:34:43;21.60;67.50
68922;DHT22;55959;51.244;5.724;2023-07-16T01:37:10;21.60;67.60
68922;DHT22;55959;51.244;5.724;2023-07-16T01:39:35;21.50;67.60
68922;DHT22;55959;51.244;5.724;2023-07-16T01:42:02;21.50;67.60
68922;DHT22;55959;51.244;5.724;2023-07-16T01:44:28;21.50;67.50
68922;DHT22;55959;51.244;5.724;2023-07-16T01:49:38;21.40;67.50
68922;DHT22;55959;51.244;5.724;2023-07-16T01:52:06;21.40;67.50
68922;DHT22;55959;51.244;5.724;2023-07-16T01:54:32;21.40;67.60
68922;DHT22;55959;51.244;5.724;2023-07-16T01:56:58;21.30;67.40
68922;DHT22;55959;51.244;5.724;2023-07-16T01:59:24;21.30;67.50
68922;DHT22;55959;51.244;5.724;2023-07-16T02:01:50;21.30;67.40
68922;DHT22;55959;51.244;5.724;2023-07-16T02:04:16;21.20;67.40
68922;DHT22;55959;51.244;5.724;2023-07-16T02:06:42;21.20;67.30
68922;DHT22;55959;51.244;5.724;2023-07-16T02:09:09;21.20;67.40
68922;DHT22;55959;51.244;5.724;2023-07-16T02:11:35;21.10;67.30
68922;DHT22;55959;51.244;5.724;2023-07-16T02:14:01;21.10;67.40
68922;DHT22;55959;51.244;5.724;2023-07-16T02:16:27;21.10;67.40
68922;DHT22;55959;51.244;5.724;2023-07-16T02:18:53;21.10;67.30
68922;DHT22;55959;51.244;5.724;2023-07-16T02:21:19;21.00;67.10
68922;DHT22;55959;51.244;5.724;2023-07-16T02:23:45;21.00;66.90
68922;DHT22;55959;51.244;5.724;2023-07-16T02:26:11;20.90;66.60
68922;DHT22;55959;51.244;5.724;2023-07-16T02:28:38;20.90;66.60
68922;DHT22;55959;51.244;5.724;2023-07-16T02:31:05;20.90;66.60
68922;DHT22;55959;51.244;5.724;2023-07-16T02:33:30;20.80;66.40
68922;DHT22;55959;51.244;5.724;2023-07-16T02:35:56;20.80;66.40
68922;DHT22;55959;51.244;5.724;2023-07-16T02:38:22;20.80;66.40
68922;DHT22;55959;51.244;5.724;2023-07-16T02:40:48;20.80;66.50
68922;DHT22;55959;51.244;5.724;2023-07-16T02:43:14;20.70;66.50
68922;DHT22;55959;51.244;5.724;2023-07-16T02:45:40;20.70;66.50
68922;DHT22;55959;51.244;5.724;2023-07-16T02:48:06;20.60;66.50
68922;DHT22;55959;51.244;5.724;2023-07-16T02:50:36;20.70;66.80
68922;DHT22;55959;51.244;5.724;2023-07-16T02:53:07;20.60;66.80
68922;DHT22;55959;51.244;5.724;2023-07-16T02:55:35;20.60;66.90
68922;DHT22;55959;51.244;5.724;2023-07-16T02:58:01;20.50;66.90
68922;DHT22;55959;51.244;5.724;2023-07-16T03:00:30;20.50;66.80
68922;DHT22;55959;51.244;5.724;2023-07-16T03:02:56;20.50;66.80
68922;DHT22;55959;51.244;5.724;2023-07-16T03:05:24;20.40;66.50
68922;DHT22;55959;51.244;5.724;2023-07-16T03:07:49;20.40;67.20
68922;DHT22;55959;51.244;5.724;2023-07-16T03:10:15;20.40;66.30
68922;DHT22;55959;51.244;5.724;2023-07-16T03:12:41;20.30;66.20
68922;DHT22;55959;51.244;5.724;2023-07-16T03:15:07;20.30;66.20
68922;DHT22;55959;51.244;5.724;2023-07-16T03:17:33;20.30;66.20
68922;DHT22;55959;51.244;5.724;2023-07-16T03:19:59;20.30;66.20
68922;DHT22;55959;51.244;5.724;2023-07-16T03:22:25;20.20;67.10
68922;DHT22;55959;51.244;5.724;2023-07-16T03:24:51;20.20;66.20
68922;DHT22;55959;51.244;5.724;2023-07-16T03:27:16;20.20;66.00
68922;DHT22;55959;51.244;5.724;2023-07-16T03:29:42;20.20;66.00
68922;DHT22;55959;51.244;5.724;2023-07-16T03:32:08;20.20;66.00
68922;DHT22;55959;51.244;5.724;2023-07-16T03:34:34;20.10;65.40
68922;DHT22;55959;51.244;5.724;2023-07-16T03:37:00;20.10;65.20
68922;DHT22;55959;51.244;5.724;2023-07-16T03:39:26;20.00;64.80
68922;DHT22;55959;51.244;5.724;2023-07-16T03:41:52;20.00;64.10
68922;DHT22;55959;51.244;5.724;2023-07-16T03:44:18;20.00;63.90
68922;DHT22;55959;51.244;5.724;2023-07-16T03:46:44;19.90;63.40
68922;DHT22;55959;51.244;5.724;2023-07-16T03:49:11;19.90;63.20
68922;DHT22;55959;51.244;5.724;2023-07-16T03:51:37;19.90;63.20
68922;DHT22;55959;51.244;5.724;2023-07-16T03:54:03;19.80;63.20
68922;DHT22;55959;51.244;5.724;2023-07-16T03:56:29;19.80;63.20
68922;DHT22;55959;51.244;5.724;2023-07-16T03:58:54;19.70;63.00
68922;DHT22;55959;51.244;5.724;2023-07-16T04:01:20;19.80;63.00
68922;DHT22;55959;51.244;5.724;2023-07-16T04:03:46;19.70;63.00
68922;DHT22;55959;51.244;5.724;2023-07-16T04:06:12;19.70;64.10
68922;DHT22;55959;51.244;5.724;2023-07-16T04:08:38;19.70;63.40
68922;DHT22;55959;51.244;5.724;2023-07-16T04:11:05;19.70;63.40
68922;DHT22;55959;51.244;5.724;2023-07-16T04:13:32;19.60;63.40
68922;DHT22;55959;51.244;5.724;2023-07-16T04:15:58;19.60;63.40
68922;DHT22;55959;51.244;5.724;2023-07-16T04:18:24;19.60;63.50
68922;DHT22;55959;51.244;5.724;2023-07-16T04:20:51;19.60;63.60
68922;DHT22;55959;51.244;5.724;2023-07-16T04:23:16;19.60;63.70
68922;DHT22;55959;51.244;5.724;2023-07-16T04:25:42;19.60;63.80
68922;DHT22;55959;51.244;5.724;2023-07-16T04:28:10;19.50;63.70
68922;DHT22;55959;51.244;5.724;2023-07-16T04:30:36;19.50;63.80
68922;DHT22;55959;51.244;5.724;2023-07-16T04:33:04;19.50;63.80
68922;DHT22;55959;51.244;5.724;2023-07-16T04:35:30;19.50;63.90
68922;DHT22;55959;51.244;5.724;2023-07-16T04:37:55;19.50;63.90
68922;DHT22;55959;51.244;5.724;2023-07-16T04:40:21;19.50;63.80
68922;DHT22;55959;51.244;5.724;2023-07-16T04:42:48;19.50;63.90
68922;DHT22;55959;51.244;5.724;2023-07-16T04:45:14;19.50;64.00
68922;DHT22;55959;51.244;5.724;2023-07-16T04:47:40;19.50;64.00
68922;DHT22;55959;51.244;5.724;2023-07-16T04:50:06;19.50;64.20
68922;DHT22;55959;51.244;5.724;2023-07-16T04:52:32;19.60;64.40
68922;DHT22;55959;51.244;5.724;2023-07-16T04:54:57;19.50;64.40
68922;DHT22;55959;51.244;5.724;2023-07-16T04:57:23;19.60;64.40
68922;DHT22;55959;51.244;5.724;2023-07-16T04:59:49;19.60;64.40
68922;DHT22;55959;51.244;5.724;2023-07-16T05:02:16;19.70;64.50
68922;DHT22;55959;51.244;5.724;2023-07-16T05:04:42;19.70;64.40
68922;DHT22;55959;51.244;5.724;2023-07-16T05:07:13;19.70;64.40
68922;DHT22;55959;51.244;5.724;2023-07-16T05:09:40;19.80;64.30
68922;DHT22;55959;51.244;5.724;2023-07-16T05:12:06;19.80;63.80
68922;DHT22;55959;51.244;5.724;2023-07-16T05:14:43;19.80;63.40
68922;DHT22;55959;51.244;5.724;2023-07-16T05:17:13;19.90;63.00
68922;DHT22;55959;51.244;5.724;2023-07-16T05:19:40;19.90;62.70
68922;DHT22;55959;51.244;5.724;2023-07-16T05:22:06;19.90;62.30
68922;DHT22;55959;51.244;5.724;2023-07-16T05:24:32;20.00;62.10
68922;DHT22;55959;51.244;5.724;2023-07-16T05:26:58;20.00;62.00
68922;DHT22;55959;51.244;5.724;2023-07-16T05:29:23;20.10;62.20
68922;DHT22;55959;51.244;5.724;2023-07-16T05:31:49;20.10;61.70
68922;DHT22;55959;51.244;5.724;2023-07-16T05:34:15;20.20;61.50
68922;DHT22;55959;51.244;5.724;2023-07-16T05:36:42;20.30;61.60
68922;DHT22;55959;51.244;5.724;2023-07-16T05:39:09;20.30;61.40
68922;DHT22;55959;51.244;5.724;2023-07-16T05:41:38;20.40;61.40
68922;DHT22;55959;51.244;5.724;2023-07-16T05:44:05;20.50;61.40
68922;DHT22;55959;51.244;5.724;2023-07-16T05:46:31;20.70;61.70
68922;DHT22;55959;51.244;5.724;2023-07-16T05:48:56;20.80;61.60
68922;DHT22;55959;51.244;5.724;2023-07-16T05:51:22;20.90;61.60
68922;DHT22;55959;51.244;5.724;2023-07-16T05:53:48;21.00;61.10
68922;DHT22;55959;51.244;5.724;2023-07-16T05:56:14;21.20;60.70
68922;DHT22;55959;51.244;5.724;2023-07-16T05:58:40;21.40;60.20
68922;DHT22;55959;51.244;5.724;2023-07-16T06:01:07;21.60;59.70
68922;DHT22;55959;51.244;5.724;2023-07-16T06:03:34;21.80;60.00
68922;DHT22;55959;51.244;5.724;2023-07-16T06:06:00;22.10;58.90
68922;DHT22;55959;51.244;5.724;2023-07-16T06:08:27;22.30;57.10
68922;DHT22;55959;51.244;5.724;2023-07-16T06:10:52;22.50;56.80
68922;DHT22;55959;51.244;5.724;2023-07-16T06:13:19;22.80;56.10
68922;DHT22;55959;51.244;5.724;2023-07-16T06:15:46;23.10;55.20
68922;DHT22;55959;51.244;5.724;2023-07-16T06:18:12;23.30;55.80
68922;DHT22;55959;51.244;5.724;2023-07-16T06:20:38;23.60;56.10
68922;DHT22;55959;51.244;5.724;2023-07-16T06:23:04;23.90;55.30
68922;DHT22;55959;51.244;5.724;2023-07-16T06:25:30;24.10;54.10
68922;DHT22;55959;51.244;5.724;2023-07-16T06:27:55;24.40;52.80
68922;DHT22;55959;51.244;5.724;2023-07-16T06:30:21;24.70;52.40
68922;DHT22;55959;51.244;5.724;2023-07-16T06:32:47;24.90;51.60
68922;DHT22;55959;51.244;5.724;2023-07-16T06:35:13;25.20;51.40
68922;DHT22;55959;51.244;5.724;2023-07-16T06:37:38;25.40;49.40
68922;DHT22;55959;51.244;5.724;2023-07-16T06:40:05;25.60;48.40
68922;DHT22;55959;51.244;5.724;2023-07-16T06:42:31;25.80;49.00
68922;DHT22;55959;51.244;5.724;2023-07-16T06:44:58;25.90;48.60
68922;DHT22;55959;51.244;5.724;2023-07-16T06:47:24;26.10;47.70
68922;DHT22;55959;51.244;5.724;2023-07-16T06:49:50;26.20;46.90
68922;DHT22;55959;51.244;5.724;2023-07-16T06:52:24;26.30;46.50
68922;DHT22;55959;51.244;5.724;2023-07-16T06:54:56;26.30;45.30
68922;DHT22;55959;51.244;5.724;2023-07-16T06:57:22;26.20;45.40
68922;DHT22;55959;51.244;5.724;2023-07-16T06:59:48;26.10;46.30
68922;DHT22;55959;51.244;5.724;2023-07-16T07:02:16;25.90;45.50
68922;DHT22;55959;51.244;5.724;2023-07-16T07:04:43;25.80;45.00
68922;DHT22;55959;51.244;5.724;2023-07-16T07:07:10;25.50;44.90
68922;DHT22;55959;51.244;5.724;2023-07-16T07:09:36;25.30;45.40
68922;DHT22;55959;51.244;5.724;2023-07-16T07:12:03;25.00;46.10
68922;DHT22;55959;51.244;5.724;2023-07-16T07:14:29;24.70;46.70
68922;DHT22;55959;51.244;5.724;2023-07-16T07:16:54;24.50;47.10
68922;DHT22;55959;51.244;5.724;2023-07-16T07:19:21;24.30;47.50
68922;DHT22;55959;51.244;5.724;2023-07-16T07:21:47;24.10;48.30
68922;DHT22;55959;51.244;5.724;2023-07-16T07:24:14;23.90;48.80
68922;DHT22;55959;51.244;5.724;2023-07-16T07:26:39;23.80;49.20
68922;DHT22;55959;51.244;5.724;2023-07-16T07:29:05;23.70;49.70
68922;DHT22;55959;51.244;5.724;2023-07-16T07:31:31;23.60;50.20
68922;DHT22;55959;51.244;5.724;2023-07-16T07:33:56;23.50;50.10
68922;DHT22;55959;51.244;5.724;2023-07-16T07:36:23;23.40;50.40
68922;DHT22;55959;51.244;5.724;2023-07-16T07:38:49;23.30;50.40
68922;DHT22;55959;51.244;5.724;2023-07-16T07:41:14;23.30;50.90
68922;DHT22;55959;51.244;5.724;2023-07-16T07:43:40;23.20;51.30
68922;DHT22;55959;51.244;5.724;2023-07-16T07:46:06;23.20;51.50
68922;DHT22;55959;51.244;5.724;2023-07-16T07:48:32;23.20;51.90
68922;DHT22;55959;51.244;5.724;2023-07-16T07:50:57;23.10;51.60
68922;DHT22;55959;51.244;5.724;2023-07-16T07:53:23;23.10;51.20
68922;DHT22;55959;51.244;5.724;2023-07-16T07:55:50;23.10;51.00
68922;DHT22;55959;51.244;5.724;2023-07-16T07:58:15;23.10;51.30
68922;DHT22;55959;51.244;5.724;2023-07-16T08:00:41;23.10;51.70
68922;DHT22;55959;51.244;5.724;2023-07-16T08:03:07;23.00;51.90
68922;DHT22;55959;51.244;5.724;2023-07-16T08:05:32;23.00;51.80
68922;DHT22;55959;51.244;5.724;2023-07-16T08:08:00;23.00;51.80
68922;DHT22;55959;51.244;5.724;2023-07-16T08:10:26;22.90;51.40
68922;DHT22;55959;51.244;5.724;2023-07-16T08:12:51;22.90;51.60
68922;DHT22;55959;51.244;5.724;2023-07-16T08:15:18;22.90;52.10
68922;DHT22;55959;51.244;5.724;2023-07-16T08:17:45;22.90;52.00
68922;DHT22;55959;51.244;5.724;2023-07-16T08:20:11;22.90;52.10
68922;DHT22;55959;51.244;5.724;2023-07-16T08:22:38;22.90;52.30
68922;DHT22;55959;51.244;5.724;2023-07-16T08:25:05;22.90;52.60
68922;DHT22;55959;51.244;5.724;2023-07-16T08:27:32;22.90;52.90
68922;DHT22;55959;51.244;5.724;2023-07-16T08:29:59;22.90;52.60
68922;DHT22;55959;51.244;5.724;2023-07-16T08:32:25;23.00;52.40
68922;DHT22;55959;51.244;5.724;2023-07-16T08:34:51;23.00;52.20
68922;DHT22;55959;51.244;5.724;2023-07-16T08:37:16;23.00;52.30
68922;DHT22;55959;51.244;5.724;2023-07-16T08:39:43;23.10;52.30
68922;DHT22;55959;51.244;5.724;2023-07-16T08:42:09;23.10;52.30
68922;DHT22;55959;51.244;5.724;2023-07-16T08:44:37;23.20;52.00
68922;DHT22;55959;51.244;5.724;2023-07-16T08:47:05;23.20;52.10
68922;DHT22;55959;51.244;5.724;2023-07-16T08:49:34;23.20;51.90
68922;DHT22;55959;51.244;5.724;2023-07-16T08:52:01;23.30;51.90
68922;DHT22;55959;51.244;5.724;2023-07-16T08:54:27;23.30;51.70
68922;DHT22;55959;51.244;5.724;2023-07-16T08:56:53;23.30;51.30
68922;DHT22;55959;51.244;5.724;2023-07-16T08:59:20;23.40;51.40
68922;DHT22;55959;51.244;5.724;2023-07-16T09:01:47;23.40;51.40
68922;DHT22;55959;51.244;5.724;2023-07-16T09:04:14;23.40;51.40
68922;DHT22;55959;51.244;5.724;2023-07-16T09:06:41;23.40;51.20
68922;DHT22;55959;51.244;5.724;2023-07-16T09:09:07;23.50;51.30
68922;DHT22;55959;51.244;5.724;2023-07-16T09:11:33;23.50;51.50
68922;DHT22;55959;51.244;5.724;2023-07-16T09:14:01;23.50;52.20
68922;DHT22;55959;51.244;5.724;2023-07-16T09:16:32;23.50;51.40
68922;DHT22;55959;51.244;5.724;2023-07-16T09:19:10;23.60;51.70
68922;DHT22;55959;51.244;5.724;2023-07-16T09:21:38;23.60;51.00
68922;DHT22;55959;51.244;5.724;2023-07-16T09:24:10;23.70;51.10
68922;DHT22;55959;51.244;5.724;2023-07-16T09:26:46;23.70;50.90
68922;DHT22;55959;51.244;5.724;2023-07-16T09:29:13;23.80;50.50
68922;DHT22;55959;51.244;5.724;2023-07-16T09:32:00;23.80;50.80
68922;DHT22;55959;51.244;5.724;2023-07-16T09:34:31;23.90;51.00
68922;DHT22;55959;51.244;5.724;2023-07-16T09:37:00;23.90;50.70
68922;DHT22;55959;51.244;5.724;2023-07-16T09:39:27;24.00;50.80
68922;DHT22;55959;51.244;5.724;2023-07-16T09:41:53;24.10;50.20
68922;DHT22;55959;51.244;5.724;2023-07-16T09:44:21;24.20;49.70
68922;DHT22;55959;51.244;5.724;2023-07-16T09:46:47;24.30;49.10
68922;DHT22;55959;51.244;5.724;2023-07-16T09:49:15;24.30;49.10
68922;DHT22;55959;51.244;5.724;2023-07-16T09:51:43;24.40;49.40
68922;DHT22;55959;51.244;5.724;2023-07-16T09:54:13;24.40;49.50
68922;DHT22;55959;51.244;5.724;2023-07-16T09:56:52;24.40;48.40
68922;DHT22;55959;51.244;5.724;2023-07-16T09:59:22;24.50;47.70
68922;DHT22;55959;51.244;5.724;2023-07-16T10:01:49;24.40;47.70
68922;DHT22;55959;51.244;5.724;2023-07-16T10:04:17;24.40;47.60
68922;DHT22;55959;51.244;5.724;2023-07-16T10:06:59;24.50;47.90
68922;DHT22;55959;51.244;5.724;2023-07-16T10:09:55;24.40;48.10
68922;DHT22;55959;51.244;5.724;2023-07-16T10:12:26;24.40;48.30
68922;DHT22;55959;51.244;5.724;2023-07-16T10:14:53;24.40;48.10
68922;DHT22;55959;51.244;5.724;2023-07-16T10:17:24;24.40;47.90
68922;DHT22;55959;51.244;5.724;2023-07-16T10:22:43;24.40;47.80
68922;DHT22;55959;51.244;5.724;2023-07-16T10:27:44;24.40;47.90
68922;DHT22;55959;51.244;5.724;2023-07-16T10:30:11;24.40;47.70
68922;DHT22;55959;51.244;5.724;2023-07-16T10:32:38;24.40;47.90
68922;DHT22;55959;51.244;5.724;2023-07-16T10:35:06;24.40;48.10
68922;DHT22;55959;51.244;5.724;2023-07-16T10:37:34;24.50;48.50
68922;DHT22;55959;51.244;5.724;2023-07-16T10:40:01;24.50;47.60
68922;DHT22;55959;51.244;5.724;2023-07-16T10:42:32;24.50;47.60
68922;DHT22;55959;51.244;5.724;2023-07-16T10:45:00;24.50;48.00
68922;DHT22;55959;51.244;5.724;2023-07-16T10:47:32;24.50;47.60
68922;DHT22;55959;51.244;5.724;2023-07-16T10:50:07;24.50;47.40
68922;DHT22;55959;51.244;5.724;2023-07-16T10:52:34;24.50;47.60
68922;DHT22;55959;51.244;5.724;2023-07-16T10:55:02;24.60;47.80
68922;DHT22;55959;51.244;5.724;2023-07-16T10:57:28;24.60;47.60
68922;DHT22;55959;51.244;5.724;2023-07-16T10:59:56;24.60;47.60
68922;DHT22;55959;51.244;5.724;2023-07-16T11:02:24;24.60;47.20
68922;DHT22;55959;51.244;5.724;2023-07-16T11:04:51;24.70;47.20
68922;DHT22;55959;51.244;5.724;2023-07-16T11:07:23;24.70;47.30
68922;DHT22;55959;51.244;5.724;2023-07-16T11:09:51;24.70;47.40
68922;DHT22;55959;51.244;5.724;2023-07-16T11:12:21;24.70;47.50
68922;DHT22;55959;51.244;5.724;2023-07-16T11:14:50;24.70;47.60
68922;DHT22;55959;51.244;5.724;2023-07-16T11:17:18;24.80;47.20
68922;DHT22;55959;51.244;5.724;2023-07-16T11:19:46;24.80;46.80
68922;DHT22;55959;51.244;5.724;2023-07-16T11:22:14;24.90;46.60
68922;DHT22;55959;51.244;5.724;2023-07-16T11:24:48;24.90;46.90
68922;DHT22;55959;51.244;5.724;2023-07-16T11:27:17;24.90;46.60
68922;DHT22;55959;51.244;5.724;2023-07-16T11:29:52;25.00;46.30
68922;DHT22;55959;51.244;5.724;2023-07-16T11:34:56;25.00;46.30
68922;DHT22;55959;51.244;5.724;2023-07-16T11:37:24;25.00;46.50
68922;DHT22;55959;51.244;5.724;2023-07-16T11:39:50;25.00;46.60
68922;DHT22;55959;51.244;5.724;2023-07-16T11:42:28;25.00;46.30
68922;DHT22;55959;51.244;5.724;2023-07-16T11:44:55;25.10;46.40
68922;DHT22;55959;51.244;5.724;2023-07-16T11:47:21;25.10;46.40
68922;DHT22;55959;51.244;5.724;2023-07-16T11:49:48;25.10;46.20
68922;DHT22;55959;51.244;5.724;2023-07-16T11:52:15;25.10;46.30
68922;DHT22;55959;51.244;5.724;2023-07-16T11:54:44;25.10;46.30
68922;DHT22;55959;51.244;5.724;2023-07-16T11:57:10;25.20;46.20
68922;DHT22;55959;51.244;5.724;2023-07-16T11:59:35;25.20;45.80
68922;DHT22;55959;51.244;5.724;2023-07-16T12:02:02;25.20;45.60
68922;DHT22;55959;51.244;5.724;2023-07-16T12:04:28;25.20;45.50
68922;DHT22;55959;51.244;5.724;2023-07-16T12:06:54;25.30;45.40
68922;DHT22;55959;51.244;5.724;2023-07-16T12:09:19;25.30;45.10
68922;DHT22;55959;51.244;5.724;2023-07-16T12:11:45;25.30;45.00
68922;DHT22;55959;51.244;5.724;2023-07-16T12:14:11;25.30;44.80
68922;DHT22;55959;51.244;5.724;2023-07-16T12:16:38;25.40;44.90
68922;DHT22;55959;51.244;5.724;2023-07-16T12:19:06;25.40;45.20
68922;DHT22;55959;51.244;5.724;2023-07-16T12:21:35;25.40;45.40
68922;DHT22;55959;51.244;5.724;2023-07-16T12:24:01;25.40;45.50
68922;DHT22;55959;51.244;5.724;2023-07-16T12:26:28;25.40;45.90
68922;DHT22;55959;51.244;5.724;2023-07-16T12:28:54;25.50;45.50
68922;DHT22;55959;51.244;5.724;2023-07-16T12:31:20;25.50;45.10
68922;DHT22;55959;51.244;5.724;2023-07-16T12:33:47;25.50;45.10
68922;DHT22;55959;51.244;5.724;2023-07-16T12:36:15;25.50;45.00
68922;DHT22;55959;51.244;5.724;2023-07-16T12:38:41;25.60;45.20
68922;DHT22;55959;51.244;5.724;2023-07-16T12:41:07;25.60;45.40
68922;DHT22;55959;51.244;5.724;2023-07-16T12:43:34;25.60;45.60
68922;DHT22;55959;51.244;5.724;2023-07-16T12:46:04;25.70;45.60
68922;DHT22;55959;51.244;5.724;2023-07-16T12:48:30;25.70;45.40
68922;DHT22;55959;51.244;5.724;2023-07-16T12:50:56;25.80;46.00
68922;DHT22;55959;51.244;5.724;2023-07-16T12:53:23;25.80;45.80
68922;DHT22;55959;51.244;5.724;2023-07-16T12:55:49;25.90;45.30
68922;DHT22;55959;51.244;5.724;2023-07-16T12:58:15;25.90;44.90
68922;DHT22;55959;51.244;5.724;2023-07-16T13:00:41;26.00;44.90
68922;DHT22;55959;51.244;5.724;2023-07-16T13:03:06;26.00;44.70
68922;DHT22;55959;51.244;5.724;2023-07-16T13:05:39;26.10;44.50
68922;DHT22;55959;51.244;5.724;2023-07-16T13:08:09;26.20;44.70
68922;DHT22;55959;51.244;5.724;2023-07-16T13:10:35;26.20;45.00
68922;DHT22;55959;51.244;5.724;2023-07-16T13:13:01;26.30;44.40
68922;DHT22;55959;51.244;5.724;2023-07-16T13:15:29;26.30;44.20
68922;DHT22;55959;51.244;5.724;2023-07-16T13:17:56;26.40;43.80
68922;DHT22;55959;51.244;5.724;2023-07-16T13:20:22;26.50;43.80
68922;DHT22;55959;51.244;5.724;2023-07-16T13:22:49;26.50;44.10
68922;DHT22;55959;51.244;5.724;2023-07-16T13:25:15;26.60;44.10
68922;DHT22;55959;51.244;5.724;2023-07-16T13:27:40;26.60;44.30
68922;DHT22;55959;51.244;5.724;2023-07-16T13:30:07;26.60;44.20
68922;DHT22;55959;51.244;5.724;2023-07-16T13:32:32;26.80;43.70
68922;DHT22;55959;51.244;5.724;2023-07-16T13:34:58;26.80;43.40
68922;DHT22;55959;51.244;5.724;2023-07-16T13:37:24;26.80;43.40
68922;DHT22;55959;51.244;5.724;2023-07-16T13:39:50;26.90;43.20
68922;DHT22;55959;51.244;5.724;2023-07-16T13:42:16;26.90;43.00
68922;DHT22;55959;51.244;5.724;2023-07-16T13:44:41;27.00;43.10
68922;DHT22;55959;51.244;5.724;2023-07-16T13:47:07;27.00;43.10
68922;DHT22;55959;51.244;5.724;2023-07-16T13:49:34;27.00;42.70
68922;DHT22;55959;51.244;5.724;2023-07-16T13:51:59;27.10;42.50
68922;DHT22;55959;51.244;5.724;2023-07-16T13:54:26;27.10;42.70
68922;DHT22;55959;51.244;5.724;2023-07-16T13:56:52;27.20;42.60
68922;DHT22;55959;51.244;5.724;2023-07-16T13:59:17;27.20;42.50
68922;DHT22;55959;51.244;5.724;2023-07-16T14:01:43;27.20;42.50
68922;DHT22;55959;51.244;5.724;2023-07-16T14:04:09;27.30;42.50
68922;DHT22;55959;51.244;5.724;2023-07-16T14:06:35;27.30;43.30
68922;DHT22;55959;51.244;5.724;2023-07-16T14:09:01;27.40;42.70
68922;DHT22;55959;51.244;5.724;2023-07-16T14:11:27;27.40;42.30
68922;DHT22;55959;51.244;5.724;2023-07-16T14:13:52;27.40;42.00
68922;DHT22;55959;51.244;5.724;2023-07-16T14:16:19;27.50;42.00
68922;DHT22;55959;51.244;5.724;2023-07-16T14:18:45;27.50;42.00
68922;DHT22;55959;51.244;5.724;2023-07-16T14:21:11;27.60;42.10
68922;DHT22;55959;51.244;5.724;2023-07-16T14:23:36;27.60;41.50
68922;DHT22;55959;51.244;5.724;2023-07-16T14:26:02;27.60;41.70
68922;DHT22;55959;51.244;5.724;2023-07-16T14:28:28;27.60;41.20
68922;DHT22;55959;51.244;5.724;2023-07-16T14:30:54;27.70;40.80
68922;DHT22;55959;51.244;5.724;2023-07-16T14:33:21;27.70;40.60
68922;DHT22;55959;51.244;5.724;2023-07-16T14:35:47;27.70;40.40
68922;DHT22;55959;51.244;5.724;2023-07-16T14:38:12;27.70;39.90
68922;DHT22;55959;51.244;5.724;2023-07-16T14:40:38;27.70;39.90
68922;DHT22;55959;51.244;5.724;2023-07-16T14:43:05;27.70;40.00
68922;DHT22;55959;51.244;5.724;2023-07-16T14:45:37;27.70;40.00
68922;DHT22;55959;51.244;5.724;2023-07-16T14:48:03;27.60;40.20
68922;DHT22;55959;51.244;5.724;2023-07-16T14:50:30;27.60;40.40
68922;DHT22;55959;51.244;5.724;2023-07-16T14:52:56;27.60;40.40
68922;DHT22;55959;51.244;5.724;2023-07-16T14:55:21;27.50;40.30
68922;DHT22;55959;51.244;5.724;2023-07-16T14:57:48;27.50;40.40
68922;DHT22;55959;51.244;5.724;2023-07-16T15:00:14;27.40;40.40
68922;DHT22;55959;51.244;5.724;2023-07-16T15:02:40;27.40;40.70
68922;DHT22;55959;51.244;5.724;2023-07-16T15:05:08;27.30;40.60
68922;DHT22;55959;51.244;5.724;2023-07-16T15:07:37;27.30;40.70
68922;DHT22;55959;51.244;5.724;2023-07-16T15:10:03;27.30;41.00
68922;DHT22;55959;51.244;5.724;2023-07-16T15:12:30;27.20;41.10
68922;DHT22;55959;51.244;5.724;2023-07-16T15:14:56;27.20;41.10
68922;DHT22;55959;51.244;5.724;2023-07-16T15:17:22;27.20;41.00
68922;DHT22;55959;51.244;5.724;2023-07-16T15:19:49;27.20;41.10
68922;DHT22;55959;51.244;5.724;2023-07-16T15:22:15;27.20;40.60
68922;DHT22;55959;51.244;5.724;2023-07-16T15:24:43;27.20;40.80
68922;DHT22;55959;51.244;5.724;2023-07-16T15:27:09;27.20;40.80
68922;DHT22;55959;51.244;5.724;2023-07-16T15:29:35;27.20;40.80
68922;DHT22;55959;51.244;5.724;2023-07-16T15:32:01;27.20;40.40
68922;DHT22;55959;51.244;5.724;2023-07-16T15:34:26;27.20;40.40
68922;DHT22;55959;51.244;5.724;2023-07-16T15:36:52;27.20;40.00
68922;DHT22;55959;51.244;5.724;2023-07-16T15:39:18;27.20;40.00
68922;DHT22;55959;51.244;5.724;2023-07-16T15:41:44;27.20;39.80
68922;DHT22;55959;51.244;5.724;2023-07-16T15:44:11;27.20;39.80
68922;DHT22;55959;51.244;5.724;2023-07-16T15:46:37;27.20;39.90